createdAt,value
2024-02-14T00:00:53.663Z,3.42
2024-02-14T00:03:22.778Z,4.47
2024-02-14T00:05:50.443Z,4.85
2024-02-14T00:08:18.390Z,3.53
2024-02-14T00:10:46.066Z,4.10
2024-02-14T00:13:14.033Z,3.20
2024-02-14T00:15:41.687Z,3.33
2024-02-14T00:18:09.455Z,3.83
2024-02-14T00:20:37.203Z,3.30
2024-02-14T00:23:04.880Z,2.67
2024-02-14T00:25:32.370Z,3.42
2024-02-14T00:28:04.915Z,4.78
2024-02-14T00:30:32.911Z,8.60
2024-02-14T00:33:00.725Z,5.47
2024-02-14T00:35:28.564Z,2.70
2024-02-14T00:37:56.796Z,3.65
2024-02-14T00:40:24.916Z,2.30
2024-02-14T00:42:52.411Z,1.65
2024-02-14T00:45:20.082Z,1.30
2024-02-14T00:47:47.972Z,1.40
2024-02-14T00:50:17.799Z,1.08
2024-02-14T00:52:45.429Z,0.60
2024-02-14T00:55:13.802Z,1.15
2024-02-14T00:57:41.507Z,1.02
2024-02-14T01:00:10.183Z,1.17
2024-02-14T01:02:37.701Z,1.35
2024-02-14T01:05:05.898Z,1.60
2024-02-14T01:07:33.394Z,2.05
2024-02-14T01:10:00.904Z,1.88
2024-02-14T01:12:30.698Z,1.80
2024-02-14T01:14:58.067Z,2.47
2024-02-14T01:17:26.239Z,1.55
2024-02-14T01:19:54.061Z,1.50
2024-02-14T01:22:22.730Z,1.00
2024-02-14T01:24:50.188Z,1.13
2024-02-14T01:27:18.100Z,1.10
2024-02-14T01:29:45.891Z,1.20
2024-02-14T01:32:13.432Z,1.17
2024-02-14T01:34:41.068Z,3.60
2024-02-14T01:37:10.027Z,3.67
2024-02-14T01:39:37.954Z,5.13
2024-02-14T01:42:08.504Z,4.88
2024-02-14T01:44:37.526Z,4.95
2024-02-14T01:47:06.185Z,3.75
2024-02-14T01:49:35.562Z,4.13
2024-02-14T01:52:04.625Z,3.95
2024-02-14T01:54:32.304Z,3.20
2024-02-14T01:57:00.235Z,3.42
2024-02-14T01:59:28.102Z,3.78
2024-02-14T02:01:55.799Z,3.13
2024-02-14T02:04:23.493Z,3.35
2024-02-14T02:06:51.238Z,3.53
2024-02-14T02:09:18.958Z,4.35
2024-02-14T02:11:55.325Z,4.00
2024-02-14T02:14:23.178Z,3.85
2024-02-14T02:16:54.617Z,3.92
2024-02-14T02:19:22.341Z,3.28
2024-02-14T02:21:50.618Z,3.85
2024-02-14T02:24:19.339Z,3.05
2024-02-14T02:26:46.913Z,3.40
2024-02-14T02:29:16.699Z,3.17
2024-02-14T02:31:44.256Z,1.10
2024-02-14T02:34:12.495Z,1.40
2024-02-14T02:36:40.831Z,2.20
2024-02-14T02:39:09.092Z,1.52
2024-02-14T02:41:36.792Z,1.20
2024-02-14T02:44:07.915Z,2.75
2024-02-14T02:46:35.946Z,2.20
2024-02-14T02:49:04.297Z,4.13
2024-02-14T02:51:32.475Z,4.07
2024-02-14T02:54:00.191Z,5.00
2024-02-14T02:56:29.072Z,2.70
2024-02-14T02:58:57.314Z,2.35
2024-02-14T03:01:26.321Z,2.25
2024-02-14T03:03:54.139Z,2.58
2024-02-14T03:06:22.017Z,2.05
2024-02-14T03:08:50.205Z,1.60
2024-02-14T03:11:17.875Z,0.98
2024-02-14T03:13:45.549Z,1.50
2024-02-14T03:16:12.783Z,1.80
2024-02-14T03:18:40.535Z,0.57
2024-02-14T03:21:08.079Z,1.40
2024-02-14T03:23:35.587Z,1.60
2024-02-14T03:26:03.827Z,1.20
2024-02-14T03:28:31.493Z,1.77
2024-02-14T03:30:59.207Z,1.25
2024-02-14T03:33:26.978Z,3.05
2024-02-14T03:35:54.747Z,3.85
2024-02-14T03:38:32.718Z,3.30
2024-02-14T03:41:00.244Z,4.18
2024-02-14T03:43:29.081Z,3.70
2024-02-14T03:45:57.336Z,3.20
2024-02-14T03:48:25.089Z,4.68
2024-02-14T03:50:53.732Z,5.30
2024-02-14T03:53:21.640Z,4.75
2024-02-14T03:55:50.415Z,3.72
2024-02-14T03:58:23.620Z,4.13
2024-02-14T04:00:54.002Z,3.03
2024-02-14T04:03:21.832Z,5.15
2024-02-14T04:05:49.727Z,6.07
2024-02-14T04:08:17.385Z,5.07
2024-02-14T04:10:45.415Z,5.80
2024-02-14T04:13:12.904Z,5.80
2024-02-14T04:15:40.424Z,4.68
2024-02-14T04:18:08.318Z,2.75
2024-02-14T04:20:36.382Z,3.42
2024-02-14T04:23:06.208Z,2.40
2024-02-14T04:25:33.834Z,3.03
2024-02-14T04:28:01.505Z,3.35
2024-02-14T04:30:29.154Z,4.82
2024-02-14T04:32:56.807Z,4.72
2024-02-14T04:35:24.826Z,7.63
2024-02-14T04:37:53.915Z,5.47
2024-02-14T04:40:21.456Z,5.97
2024-02-14T04:42:49.143Z,5.05
2024-02-14T04:45:16.942Z,3.58
2024-02-14T04:47:45.025Z,6.35
2024-02-14T04:50:12.737Z,5.95
2024-02-14T04:52:41.573Z,6.25
2024-02-14T04:55:09.809Z,4.85
2024-02-14T04:57:38.303Z,4.15
2024-02-14T05:00:06.794Z,4.25
2024-02-14T05:02:34.217Z,4.82
2024-02-14T05:05:02.862Z,4.95
2024-02-14T05:07:30.566Z,5.30
2024-02-14T05:09:58.361Z,4.53
2024-02-14T05:12:26.481Z,4.95
2024-02-14T05:14:54.304Z,4.88
2024-02-14T05:17:22.064Z,4.43
2024-02-14T05:19:49.726Z,6.45
2024-02-14T05:22:17.375Z,5.38
2024-02-14T05:24:45.973Z,4.90
2024-02-14T05:27:13.622Z,4.38
2024-02-14T05:29:41.255Z,4.80
2024-02-14T05:32:10.684Z,5.82
2024-02-14T05:34:38.472Z,6.75
2024-02-14T05:37:06.930Z,7.35
2024-02-14T05:39:35.120Z,5.03
2024-02-14T05:42:02.786Z,4.97
2024-02-14T05:44:31.545Z,2.67
2024-02-14T05:46:59.185Z,4.68
2024-02-14T05:49:26.968Z,4.25
2024-02-14T05:51:55.705Z,4.85
2024-02-14T05:54:23.116Z,4.60
2024-02-14T05:56:50.793Z,1.98
2024-02-14T05:59:18.581Z,3.72
2024-02-14T06:01:46.141Z,4.57
2024-02-14T06:04:13.852Z,2.17
2024-02-14T06:06:41.618Z,2.20
2024-02-14T06:09:12.841Z,1.80
2024-02-14T06:11:40.848Z,2.20
2024-02-14T06:14:08.779Z,2.63
2024-02-14T06:16:36.717Z,1.42
2024-02-14T06:19:07.562Z,1.85
2024-02-14T06:21:35.228Z,2.78
2024-02-14T06:24:05.266Z,2.95
2024-02-14T06:26:34.479Z,3.97
2024-02-14T06:29:02.273Z,2.95
2024-02-14T06:31:29.958Z,3.42
2024-02-14T06:33:57.829Z,2.95
2024-02-14T06:36:25.664Z,3.55
2024-02-14T06:38:54.311Z,1.30
2024-02-14T06:41:22.043Z,4.70
2024-02-14T06:43:49.804Z,2.72
2024-02-14T06:46:17.478Z,1.42
2024-02-14T06:48:46.263Z,2.97
2024-02-14T06:51:15.394Z,1.70
2024-02-14T06:53:42.985Z,1.58
2024-02-14T06:56:10.851Z,4.72
2024-02-14T06:58:42.370Z,1.25
2024-02-14T07:01:21.833Z,1.65
2024-02-14T07:03:58.159Z,1.40
2024-02-14T07:06:40.079Z,2.22
2024-02-14T07:09:22.207Z,1.25
2024-02-14T07:12:00.150Z,2.72
2024-02-14T07:14:40.834Z,2.83
2024-02-14T07:17:18.991Z,2.00
2024-02-14T07:19:59.000Z,3.60
2024-02-14T07:22:41.519Z,2.53
2024-02-14T07:25:17.402Z,2.72
2024-02-14T07:27:53.426Z,2.20
2024-02-14T07:30:35.281Z,1.92
2024-02-14T07:33:12.741Z,2.08
2024-02-14T07:35:40.871Z,2.22
2024-02-14T07:38:08.529Z,4.63
2024-02-14T07:40:36.204Z,2.88
2024-02-14T07:43:09.682Z,4.72
2024-02-14T07:45:37.550Z,4.53
2024-02-14T07:48:05.527Z,3.78
2024-02-14T07:50:34.440Z,4.20
2024-02-14T07:53:02.553Z,3.92
2024-02-14T07:55:30.175Z,3.72
2024-02-14T07:57:58.048Z,5.65
2024-02-14T08:00:25.811Z,3.92
2024-02-14T08:02:53.573Z,4.30
2024-02-14T08:05:21.195Z,4.72
2024-02-14T08:07:48.970Z,3.83
2024-02-14T08:10:16.827Z,6.00
2024-02-14T08:12:44.545Z,6.80
2024-02-14T08:15:13.061Z,7.72
2024-02-14T08:17:44.178Z,4.90
2024-02-14T08:20:13.896Z,4.18
2024-02-14T08:22:41.674Z,6.25
2024-02-14T08:25:09.639Z,3.53
2024-02-14T08:27:37.257Z,4.25
2024-02-14T08:30:07.722Z,5.00
2024-02-14T08:32:36.147Z,4.90
2024-02-14T08:35:04.145Z,4.72
2024-02-14T08:37:31.761Z,6.68
2024-02-14T08:39:59.402Z,4.70
2024-02-14T08:42:34.350Z,5.10
2024-02-14T08:45:01.957Z,4.75
2024-02-14T08:47:29.796Z,3.75
2024-02-14T08:49:57.623Z,3.85
2024-02-14T08:52:26.942Z,3.60
2024-02-14T08:54:54.759Z,6.13
2024-02-14T08:57:32.945Z,3.42
2024-02-14T09:00:04.434Z,3.35
2024-02-14T09:02:32.144Z,4.82
2024-02-14T09:05:00.057Z,6.65
2024-02-14T09:07:27.843Z,5.20
2024-02-14T09:09:55.413Z,4.38
2024-02-14T09:12:23.486Z,6.13
2024-02-14T09:14:51.217Z,4.82
2024-02-14T09:17:18.880Z,4.50
2024-02-14T09:19:46.642Z,4.10
2024-02-14T09:22:19.451Z,4.47
2024-02-14T09:24:47.236Z,4.43
2024-02-14T09:27:15.687Z,4.30
2024-02-14T09:29:46.088Z,6.25
2024-02-14T09:32:14.300Z,4.68
2024-02-14T09:34:42.724Z,4.55
2024-02-14T09:37:10.684Z,5.18
2024-02-14T09:39:38.746Z,4.28
2024-02-14T09:42:15.365Z,5.20
2024-02-14T09:44:43.131Z,5.20
2024-02-14T09:47:11.345Z,3.70
2024-02-14T09:49:40.415Z,3.72
2024-02-14T09:52:08.417Z,4.57
2024-02-14T09:54:37.402Z,4.32
2024-02-14T09:57:05.277Z,5.43
2024-02-14T09:59:34.154Z,4.97
2024-02-14T10:02:02.338Z,4.05
2024-02-14T10:04:30.281Z,5.90
2024-02-14T10:06:58.927Z,3.10
2024-02-14T10:09:27.617Z,2.70
2024-02-14T10:11:55.676Z,3.22
2024-02-14T10:14:24.901Z,6.50
2024-02-14T10:16:53.596Z,3.58
2024-02-14T10:19:21.470Z,3.50
2024-02-14T10:22:00.069Z,4.60
2024-02-14T10:24:28.814Z,3.60
2024-02-14T10:26:59.119Z,2.90
2024-02-14T10:29:27.340Z,3.40
2024-02-14T10:31:55.353Z,2.85
2024-02-14T10:34:31.058Z,3.88
2024-02-14T10:36:59.356Z,4.65
2024-02-14T10:39:27.950Z,2.42
2024-02-14T10:41:56.123Z,2.78
2024-02-14T10:44:23.838Z,4.63
2024-02-14T10:46:54.110Z,4.55
2024-02-14T10:49:22.747Z,5.13
2024-02-14T10:51:50.674Z,7.05
2024-02-14T10:54:21.181Z,4.80
2024-02-14T10:56:53.720Z,5.80
2024-02-14T10:59:25.022Z,3.15
2024-02-14T11:01:53.562Z,4.50
2024-02-14T11:04:22.516Z,4.45
2024-02-14T11:06:58.802Z,5.13
2024-02-14T11:12:11.528Z,3.22
2024-02-14T11:14:42.297Z,3.35
2024-02-14T11:17:16.101Z,4.78
2024-02-14T11:19:44.036Z,4.05
2024-02-14T11:22:15.899Z,2.80
2024-02-14T11:24:43.867Z,3.97
2024-02-14T11:27:26.814Z,4.95
2024-02-14T11:30:02.080Z,3.38
2024-02-14T11:32:33.949Z,3.60
2024-02-14T11:35:01.945Z,3.95
2024-02-14T11:37:30.825Z,2.20
2024-02-14T11:39:59.368Z,3.33
2024-02-14T11:42:27.714Z,3.70
2024-02-14T11:44:58.426Z,3.15
2024-02-14T11:47:26.576Z,3.08
2024-02-14T11:49:55.562Z,3.60
2024-02-14T11:52:23.406Z,3.70
2024-02-14T11:54:51.095Z,3.65
2024-02-14T11:57:20.118Z,3.40
2024-02-14T11:59:49.189Z,4.13
2024-02-14T12:02:25.258Z,3.58
2024-02-14T12:04:57.430Z,3.80
2024-02-14T12:07:25.933Z,3.80
2024-02-14T12:09:54.251Z,3.05
2024-02-14T12:12:24.277Z,4.80
2024-02-14T12:17:23.440Z,3.85
2024-02-14T12:19:52.073Z,3.45
2024-02-14T12:22:20.651Z,3.67
2024-02-14T12:24:53.528Z,3.15
2024-02-14T12:27:21.671Z,3.05
2024-02-14T12:29:50.400Z,3.65
2024-02-14T12:32:19.513Z,4.25
2024-02-14T12:34:47.439Z,4.85
2024-02-14T12:37:15.321Z,4.15
2024-02-14T12:39:42.903Z,5.00
2024-02-14T12:42:10.806Z,6.63
2024-02-14T12:44:39.459Z,4.25
2024-02-14T12:47:09.024Z,6.10
2024-02-14T12:49:37.019Z,4.63
2024-02-14T12:52:06.122Z,3.22
2024-02-14T12:54:34.006Z,3.40
2024-02-14T12:57:02.671Z,4.05
2024-02-14T12:59:30.296Z,4.25
2024-02-14T13:01:58.049Z,3.90
2024-02-14T13:04:26.074Z,3.72
2024-02-14T13:06:55.417Z,4.47
2024-02-14T13:09:23.435Z,4.10
2024-02-14T13:11:51.637Z,4.72
2024-02-14T13:14:19.335Z,3.45
2024-02-14T13:16:47.084Z,3.67
2024-02-14T13:19:19.213Z,4.35
2024-02-14T13:21:49.256Z,3.95
2024-02-14T13:24:18.271Z,4.30
2024-02-14T13:26:46.226Z,4.65
2024-02-14T13:29:13.885Z,4.72
2024-02-14T13:31:41.458Z,6.07
2024-02-14T13:34:09.793Z,9.23
2024-02-14T13:36:38.105Z,7.75
2024-02-14T13:39:06.465Z,8.75
2024-02-14T13:41:34.024Z,6.05
2024-02-14T13:44:02.668Z,6.03
2024-02-14T13:46:30.526Z,7.13
2024-02-14T13:48:58.928Z,7.82
2024-02-14T13:51:30.722Z,8.18
2024-02-14T13:53:58.511Z,6.95
2024-02-14T13:56:26.406Z,8.20
2024-02-14T13:58:54.036Z,8.98
2024-02-14T14:01:22.575Z,8.85
2024-02-14T14:03:51.587Z,8.57
2024-02-14T14:06:19.666Z,7.15
2024-02-14T14:08:51.653Z,9.10
2024-02-14T14:11:28.754Z,9.10
2024-02-14T14:13:56.603Z,7.13
2024-02-14T14:16:24.548Z,9.13
2024-02-14T14:18:54.804Z,8.77
2024-02-14T14:21:22.909Z,8.20
2024-02-14T14:23:51.103Z,7.93
2024-02-14T14:26:18.873Z,8.02
2024-02-14T14:28:47.486Z,9.27
2024-02-14T14:31:15.588Z,10.00
2024-02-14T14:33:44.031Z,10.15
2024-02-14T14:36:11.876Z,11.95
2024-02-14T14:38:42.032Z,11.45
2024-02-14T14:41:11.616Z,11.52
2024-02-14T14:43:40.432Z,11.88
2024-02-14T14:46:08.110Z,14.35
2024-02-14T14:48:36.155Z,10.90
2024-02-14T14:51:05.457Z,11.07
2024-02-14T14:53:36.543Z,11.00
2024-02-14T14:56:04.447Z,10.35
2024-02-14T14:58:35.236Z,11.77
2024-02-14T15:01:05.604Z,9.27
2024-02-14T15:03:33.877Z,11.32
2024-02-14T15:06:01.972Z,15.40
2024-02-14T15:08:29.946Z,19.63
2024-02-14T15:10:58.779Z,17.63
2024-02-14T15:13:26.965Z,19.60
2024-02-14T15:15:54.698Z,19.42
2024-02-14T15:18:22.904Z,20.02
2024-02-14T15:20:51.113Z,20.40
2024-02-14T15:23:19.371Z,18.95
2024-02-14T15:25:46.814Z,14.13
2024-02-14T15:28:19.244Z,13.88
2024-02-14T15:31:06.250Z,11.23
2024-02-14T15:33:34.252Z,14.13
2024-02-14T15:36:02.241Z,13.10
2024-02-14T15:38:30.556Z,13.15
2024-02-14T15:41:08.454Z,12.32
2024-02-14T15:43:36.239Z,10.95
2024-02-14T15:46:06.102Z,11.05
2024-02-14T15:48:34.606Z,11.23
2024-02-14T15:51:03.759Z,10.50
2024-02-14T15:53:32.330Z,10.82
2024-02-14T15:56:01.480Z,14.80
2024-02-14T15:58:29.165Z,13.80
2024-02-14T16:00:57.069Z,11.93
2024-02-14T16:03:24.740Z,16.38
2024-02-14T16:05:52.604Z,14.18
2024-02-14T16:08:20.485Z,12.55
2024-02-14T16:10:49.660Z,10.85
2024-02-14T16:13:17.717Z,11.80
2024-02-14T16:15:46.170Z,10.30
2024-02-14T16:18:14.309Z,9.77
2024-02-14T16:20:42.121Z,9.68
2024-02-14T16:23:09.733Z,9.32
2024-02-14T16:25:39.083Z,9.60
2024-02-14T16:28:08.283Z,9.55
2024-02-14T16:30:35.976Z,10.50
2024-02-14T16:33:03.690Z,10.02
2024-02-14T16:35:31.886Z,9.25
2024-02-14T16:37:59.996Z,10.30
2024-02-14T16:40:30.220Z,10.52
2024-02-14T16:42:59.954Z,12.77
2024-02-14T16:45:31.610Z,12.00
2024-02-14T16:47:59.456Z,12.40
2024-02-14T16:50:30.011Z,10.80
2024-02-14T16:52:58.195Z,11.57
2024-02-14T16:55:26.703Z,11.15
2024-02-14T16:57:55.409Z,12.35
2024-02-14T17:00:23.195Z,13.88
2024-02-14T17:02:50.646Z,12.82
2024-02-14T17:05:18.448Z,14.70
2024-02-14T17:07:48.148Z,15.80
2024-02-14T17:10:15.801Z,15.55
2024-02-14T17:12:43.696Z,16.23
2024-02-14T17:15:11.423Z,17.70
2024-02-14T17:17:39.295Z,17.70
2024-02-14T17:20:08.304Z,17.70
2024-02-14T17:22:36.122Z,23.88
2024-02-14T17:25:03.553Z,21.15
2024-02-14T17:27:31.178Z,20.45
2024-02-14T17:29:58.899Z,19.85
2024-02-14T17:32:32.862Z,20.48
2024-02-14T17:35:07.430Z,21.17
2024-02-14T17:37:36.923Z,21.80
2024-02-14T17:40:05.597Z,22.20
2024-02-14T17:42:34.149Z,20.98
2024-02-14T17:45:01.869Z,21.13
2024-02-14T17:47:31.529Z,22.02
2024-02-14T17:49:59.320Z,18.50
2024-02-14T17:52:27.471Z,20.17
2024-02-14T17:54:55.837Z,19.95
2024-02-14T17:57:24.656Z,20.92
2024-02-14T17:59:52.693Z,20.50
2024-02-14T18:02:21.060Z,16.40
2024-02-14T18:04:49.062Z,18.52
2024-02-14T18:07:17.247Z,17.73
2024-02-14T18:09:44.998Z,18.58
2024-02-14T18:12:12.973Z,15.93
2024-02-14T18:14:41.166Z,15.77
2024-02-14T18:17:09.369Z,13.43
2024-02-14T18:19:37.543Z,13.27
2024-02-14T18:22:05.521Z,12.43
2024-02-14T18:24:33.619Z,10.30
2024-02-14T18:27:01.678Z,12.10
2024-02-14T18:29:30.354Z,9.43
2024-02-14T18:31:58.002Z,9.13
2024-02-14T18:34:25.673Z,11.40
2024-02-14T18:36:54.643Z,13.52
2024-02-14T18:39:22.152Z,15.82
2024-02-14T18:41:50.022Z,16.88
2024-02-14T18:44:20.795Z,19.33
2024-02-14T18:46:49.297Z,21.83
2024-02-14T18:49:17.336Z,18.35
2024-02-14T18:51:45.900Z,17.63
2024-02-14T18:54:13.621Z,16.55
2024-02-14T18:56:41.995Z,15.35
2024-02-14T18:59:10.159Z,14.57
2024-02-14T19:01:37.796Z,11.80
2024-02-14T19:04:06.056Z,10.90
2024-02-14T19:06:35.959Z,9.10
2024-02-14T19:09:04.479Z,6.80
2024-02-14T19:11:31.874Z,5.95
2024-02-14T19:13:59.495Z,5.43
2024-02-14T19:16:28.922Z,7.85
2024-02-14T19:18:58.253Z,9.18
2024-02-14T19:21:26.167Z,10.80
2024-02-14T19:23:53.948Z,13.35
2024-02-14T19:26:22.647Z,12.18
2024-02-14T19:28:50.387Z,11.38
2024-02-14T19:31:18.192Z,13.23
2024-02-14T19:33:47.396Z,10.10
2024-02-14T19:36:15.401Z,8.75
2024-02-14T19:38:43.270Z,9.20
2024-02-14T19:41:11.524Z,9.25
2024-02-14T19:43:40.380Z,8.73
2024-02-14T19:46:08.567Z,10.05
2024-02-14T19:48:36.781Z,12.80
2024-02-14T19:51:06.147Z,12.32
2024-02-14T19:53:36.374Z,13.60
2024-02-14T19:56:04.799Z,13.48
2024-02-14T19:58:32.152Z,15.40
2024-02-14T20:00:59.572Z,12.75
2024-02-14T20:03:27.210Z,12.07
2024-02-14T20:05:54.867Z,8.98
2024-02-14T20:08:26.599Z,9.10
2024-02-14T20:10:54.170Z,14.52
2024-02-14T20:13:21.829Z,12.35
2024-02-14T20:15:49.617Z,9.75
2024-02-14T20:18:17.580Z,11.30
2024-02-14T20:20:45.402Z,10.98
2024-02-14T20:23:14.426Z,10.50
2024-02-14T20:25:41.771Z,10.00
2024-02-14T20:28:09.411Z,11.50
2024-02-14T20:30:37.093Z,10.82
2024-02-14T20:33:04.772Z,11.30
2024-02-14T20:35:33.210Z,10.98
2024-02-14T20:38:01.370Z,12.18
2024-02-14T20:40:29.005Z,12.82
2024-02-14T20:42:56.276Z,11.20
2024-02-14T20:45:24.388Z,9.50
2024-02-14T20:47:52.522Z,9.52
2024-02-14T20:50:21.605Z,10.82
2024-02-14T20:52:49.795Z,8.82
2024-02-14T20:55:17.199Z,7.60
2024-02-14T20:57:44.807Z,7.47
2024-02-14T21:00:13.000Z,7.70
2024-02-14T21:02:40.716Z,8.82
2024-02-14T21:05:08.637Z,9.70
2024-02-14T21:07:36.409Z,9.75
2024-02-14T21:10:04.108Z,7.30
2024-02-14T21:12:31.601Z,7.72
2024-02-14T21:14:59.202Z,9.55
2024-02-14T21:17:27.007Z,9.68
2024-02-14T21:19:54.255Z,9.23
2024-02-14T21:22:21.897Z,9.95
2024-02-14T21:24:50.544Z,8.90
2024-02-14T21:27:18.288Z,6.55
2024-02-14T21:29:46.469Z,6.10
2024-02-14T21:32:15.583Z,4.50
2024-02-14T21:34:43.036Z,5.00
2024-02-14T21:37:10.710Z,4.90
2024-02-14T21:39:38.166Z,5.10
2024-02-14T21:42:09.316Z,4.63
2024-02-14T21:44:37.371Z,5.82
2024-02-14T21:47:08.944Z,6.45
2024-02-14T21:49:39.888Z,5.15
2024-02-14T21:52:08.382Z,6.43
2024-02-14T21:54:36.390Z,5.30
2024-02-14T21:57:04.523Z,6.03
2024-02-14T21:59:32.207Z,5.60
2024-02-14T22:02:00.583Z,6.53
2024-02-14T22:04:28.008Z,6.13
2024-02-14T22:06:56.776Z,6.85
2024-02-14T22:09:25.595Z,7.03
2024-02-14T22:11:53.270Z,6.80
2024-02-14T22:14:21.676Z,8.50
2024-02-14T22:16:49.086Z,9.48
2024-02-14T22:19:16.693Z,8.68
2024-02-14T22:21:44.297Z,8.65
2024-02-14T22:24:11.931Z,7.15
2024-02-14T22:26:39.645Z,7.72
2024-02-14T22:29:08.083Z,7.38
2024-02-14T22:31:35.915Z,4.70
2024-02-14T22:34:04.098Z,4.25
2024-02-14T22:36:32.654Z,5.05
2024-02-14T22:39:00.447Z,4.97
2024-02-14T22:41:28.251Z,3.67
2024-02-14T22:43:55.773Z,2.47
2024-02-14T22:46:23.254Z,3.63
2024-02-14T22:48:50.721Z,4.35
2024-02-14T22:51:22.452Z,5.25
2024-02-14T22:53:50.060Z,6.15
2024-02-14T22:56:17.841Z,4.53
2024-02-14T22:58:45.437Z,4.00
2024-02-14T23:01:13.240Z,6.47
2024-02-14T23:03:41.442Z,4.78
2024-02-14T23:06:09.158Z,4.30
2024-02-14T23:08:36.884Z,2.85
2024-02-14T23:11:04.875Z,2.70
2024-02-14T23:13:32.749Z,2.70
2024-02-14T23:16:00.389Z,2.90
2024-02-14T23:18:29.199Z,3.30
2024-02-14T23:21:00.180Z,3.85
2024-02-14T23:23:27.704Z,3.10
2024-02-14T23:25:55.420Z,3.15
2024-02-14T23:28:25.331Z,4.57
2024-02-14T23:30:52.717Z,4.70
2024-02-14T23:33:20.717Z,4.35
2024-02-14T23:35:48.587Z,4.18
2024-02-14T23:38:16.185Z,4.22
2024-02-14T23:40:43.801Z,3.75
2024-02-14T23:43:12.071Z,4.95
2024-02-14T23:45:41.608Z,6.85
2024-02-14T23:48:10.160Z,7.45
2024-02-14T23:50:38.702Z,5.75
2024-02-14T23:53:05.984Z,4.85
2024-02-14T23:55:33.579Z,4.05
2024-02-14T23:58:01.555Z,4.05
